sensor_id;sensor_type;location;lat;lon;timestamp;P1;durP1;ratioP1;P2;durP2;ratioP2
12818;SDS011;6474;53.474;9.894;2023-04-01T00:00:47;1.13;;;1.13;;
12818;SDS011;6474;53.474;9.894;2023-04-01T00:03:16;1.00;;;1.00;;
12818;SDS011;6474;53.474;9.894;2023-04-01T00:05:46;1.13;;;1.13;;
12818;SDS011;6474;53.474;9.894;2023-04-01T00:08:14;1.03;;;1.03;;
12818;SDS011;6474;53.474;9.894;2023-04-01T00:10:43;2.73;;;1.10;;
12818;SDS011;6474;53.474;9.894;2023-04-01T00:13:12;0.93;;;0.93;;
12818;SDS011;6474;53.474;9.894;2023-04-01T00:15:40;0.97;;;0.97;;
12818;SDS011;6474;53.474;9.894;2023-04-01T00:18:08;1.40;;;1.40;;
12818;SDS011;6474;53.474;9.894;2023-04-01T00:20:36;1.07;;;1.03;;
12818;SDS011;6474;53.474;9.894;2023-04-01T00:23:07;0.90;;;0.83;;
12818;SDS011;6474;53.474;9.894;2023-04-01T00:25:35;0.83;;;0.83;;
12818;SDS011;6474;53.474;9.894;2023-04-01T00:28:03;2.43;;;1.20;;
12818;SDS011;6474;53.474;9.894;2023-04-01T00:30:31;1.27;;;1.27;;
12818;SDS011;6474;53.474;9.894;2023-04-01T00:33:01;0.83;;;0.83;;
12818;SDS011;6474;53.474;9.894;2023-04-01T00:35:30;1.03;;;0.90;;
12818;SDS011;6474;53.474;9.894;2023-04-01T00:37:58;1.10;;;0.90;;
12818;SDS011;6474;53.474;9.894;2023-04-01T00:40:28;0.83;;;0.83;;
12818;SDS011;6474;53.474;9.894;2023-04-01T00:42:57;1.03;;;1.03;;
12818;SDS011;6474;53.474;9.894;2023-04-01T00:45:28;1.13;;;1.03;;
12818;SDS011;6474;53.474;9.894;2023-04-01T00:48:02;7.37;;;1.27;;
12818;SDS011;6474;53.474;9.894;2023-04-01T00:50:33;0.93;;;0.93;;
12818;SDS011;6474;53.474;9.894;2023-04-01T00:53:02;1.00;;;1.00;;
12818;SDS011;6474;53.474;9.894;2023-04-01T00:55:35;1.00;;;1.00;;
12818;SDS011;6474;53.474;9.894;2023-04-01T00:58:07;1.00;;;1.00;;
12818;SDS011;6474;53.474;9.894;2023-04-01T01:00:40;1.20;;;1.13;;
12818;SDS011;6474;53.474;9.894;2023-04-01T01:03:09;7.10;;;1.30;;
12818;SDS011;6474;53.474;9.894;2023-04-01T01:05:44;0.73;;;0.73;;
12818;SDS011;6474;53.474;9.894;2023-04-01T01:08:31;1.33;;;0.80;;
12818;SDS011;6474;53.474;9.894;2023-04-01T01:11:08;1.30;;;1.27;;
12818;SDS011;6474;53.474;9.894;2023-04-01T01:13:40;1.40;;;1.30;;
12818;SDS011;6474;53.474;9.894;2023-04-01T01:16:14;1.37;;;1.23;;
12818;SDS011;6474;53.474;9.894;2023-04-01T01:18:47;3.73;;;1.40;;
12818;SDS011;6474;53.474;9.894;2023-04-01T01:24:20;1.97;;;1.20;;
12818;SDS011;6474;53.474;9.894;2023-04-01T01:27:06;2.30;;;1.00;;
12818;SDS011;6474;53.474;9.894;2023-04-01T01:29:57;1.60;;;1.30;;
12818;SDS011;6474;53.474;9.894;2023-04-01T01:33:06;1.00;;;1.00;;
12818;SDS011;6474;53.474;9.894;2023-04-01T01:35:44;5.63;;;1.40;;
12818;SDS011;6474;53.474;9.894;2023-04-01T01:38:15;1.23;;;1.23;;
12818;SDS011;6474;53.474;9.894;2023-04-01T01:40:45;2.30;;;1.40;;
12818;SDS011;6474;53.474;9.894;2023-04-01T01:43:19;1.07;;;1.07;;
12818;SDS011;6474;53.474;9.894;2023-04-01T01:45:51;1.40;;;1.30;;
12818;SDS011;6474;53.474;9.894;2023-04-01T01:48:22;1.63;;;1.30;;
12818;SDS011;6474;53.474;9.894;2023-04-01T01:50:53;1.23;;;1.23;;
12818;SDS011;6474;53.474;9.894;2023-04-01T01:53:21;1.20;;;1.20;;
12818;SDS011;6474;53.474;9.894;2023-04-01T01:55:49;0.93;;;0.93;;
12818;SDS011;6474;53.474;9.894;2023-04-01T01:58:19;1.20;;;1.20;;
12818;SDS011;6474;53.474;9.894;2023-04-01T02:00:50;2.03;;;1.50;;
12818;SDS011;6474;53.474;9.894;2023-04-01T02:03:22;1.13;;;1.13;;
12818;SDS011;6474;53.474;9.894;2023-04-01T02:05:54;1.13;;;1.13;;
12818;SDS011;6474;53.474;9.894;2023-04-01T02:08:26;1.33;;;1.33;;
12818;SDS011;6474;53.474;9.894;2023-04-01T02:10:59;2.03;;;1.83;;
12818;SDS011;6474;53.474;9.894;2023-04-01T02:13:31;1.07;;;1.07;;
12818;SDS011;6474;53.474;9.894;2023-04-01T02:16:06;2.03;;;1.20;;
12818;SDS011;6474;53.474;9.894;2023-04-01T02:18:39;1.23;;;1.23;;
12818;SDS011;6474;53.474;9.894;2023-04-01T02:21:11;1.20;;;1.10;;
12818;SDS011;6474;53.474;9.894;2023-04-01T02:23:44;1.43;;;1.37;;
12818;SDS011;6474;53.474;9.894;2023-04-01T02:26:13;1.20;;;1.20;;
12818;SDS011;6474;53.474;9.894;2023-04-01T02:28:42;2.73;;;1.37;;
12818;SDS011;6474;53.474;9.894;2023-04-01T02:31:13;2.53;;;1.47;;
12818;SDS011;6474;53.474;9.894;2023-04-01T02:33:42;1.33;;;1.33;;
12818;SDS011;6474;53.474;9.894;2023-04-01T02:36:13;3.47;;;1.47;;
12818;SDS011;6474;53.474;9.894;2023-04-01T02:38:43;1.23;;;1.23;;
12818;SDS011;6474;53.474;9.894;2023-04-01T02:41:14;1.83;;;1.70;;
12818;SDS011;6474;53.474;9.894;2023-04-01T02:43:42;1.40;;;1.40;;
12818;SDS011;6474;53.474;9.894;2023-04-01T02:46:10;3.43;;;1.20;;
12818;SDS011;6474;53.474;9.894;2023-04-01T02:48:38;1.40;;;1.40;;
12818;SDS011;6474;53.474;9.894;2023-04-01T02:51:06;1.30;;;1.30;;
12818;SDS011;6474;53.474;9.894;2023-04-01T02:53:36;1.80;;;1.10;;
12818;SDS011;6474;53.474;9.894;2023-04-01T02:56:04;1.40;;;1.37;;
12818;SDS011;6474;53.474;9.894;2023-04-01T02:58:32;1.40;;;1.33;;
12818;SDS011;6474;53.474;9.894;2023-04-01T03:01:00;2.87;;;1.30;;
12818;SDS011;6474;53.474;9.894;2023-04-01T03:03:28;1.37;;;1.37;;
12818;SDS011;6474;53.474;9.894;2023-04-01T03:05:56;3.50;;;1.23;;
12818;SDS011;6474;53.474;9.894;2023-04-01T03:08:26;1.40;;;1.10;;
12818;SDS011;6474;53.474;9.894;2023-04-01T03:10:55;1.63;;;1.23;;
12818;SDS011;6474;53.474;9.894;2023-04-01T03:13:25;1.17;;;1.17;;
12818;SDS011;6474;53.474;9.894;2023-04-01T03:15:53;3.70;;;1.67;;
12818;SDS011;6474;53.474;9.894;2023-04-01T03:18:21;1.13;;;1.13;;
12818;SDS011;6474;53.474;9.894;2023-04-01T03:20:49;3.10;;;1.50;;
12818;SDS011;6474;53.474;9.894;2023-04-01T03:23:17;1.60;;;1.50;;
12818;SDS011;6474;53.474;9.894;2023-04-01T03:25:47;1.20;;;1.20;;
12818;SDS011;6474;53.474;9.894;2023-04-01T03:28:17;1.73;;;1.27;;
12818;SDS011;6474;53.474;9.894;2023-04-01T03:30:45;1.50;;;1.50;;
12818;SDS011;6474;53.474;9.894;2023-04-01T03:33:13;2.13;;;1.83;;
12818;SDS011;6474;53.474;9.894;2023-04-01T03:35:41;1.43;;;1.07;;
12818;SDS011;6474;53.474;9.894;2023-04-01T03:38:09;1.43;;;1.37;;
12818;SDS011;6474;53.474;9.894;2023-04-01T03:40:37;1.63;;;1.40;;
12818;SDS011;6474;53.474;9.894;2023-04-01T03:43:09;1.63;;;1.53;;
12818;SDS011;6474;53.474;9.894;2023-04-01T03:45:44;1.43;;;1.43;;
12818;SDS011;6474;53.474;9.894;2023-04-01T03:48:12;1.17;;;1.17;;
12818;SDS011;6474;53.474;9.894;2023-04-01T03:50:40;1.83;;;1.73;;
12818;SDS011;6474;53.474;9.894;2023-04-01T03:53:09;1.33;;;1.33;;
12818;SDS011;6474;53.474;9.894;2023-04-01T03:55:37;1.40;;;1.23;;
12818;SDS011;6474;53.474;9.894;2023-04-01T03:58:06;1.60;;;1.53;;
12818;SDS011;6474;53.474;9.894;2023-04-01T04:00:35;1.43;;;1.37;;
12818;SDS011;6474;53.474;9.894;2023-04-01T04:03:05;2.40;;;1.57;;
12818;SDS011;6474;53.474;9.894;2023-04-01T04:05:34;1.70;;;1.47;;
12818;SDS011;6474;53.474;9.894;2023-04-01T04:08:02;1.93;;;1.47;;
12818;SDS011;6474;53.474;9.894;2023-04-01T04:10:30;1.90;;;1.80;;
12818;SDS011;6474;53.474;9.894;2023-04-01T04:12:58;1.37;;;1.37;;
12818;SDS011;6474;53.474;9.894;2023-04-01T04:15:26;1.43;;;1.43;;
12818;SDS011;6474;53.474;9.894;2023-04-01T04:17:53;2.13;;;2.03;;
12818;SDS011;6474;53.474;9.894;2023-04-01T04:20:23;1.60;;;1.50;;
12818;SDS011;6474;53.474;9.894;2023-04-01T04:22:52;3.77;;;1.80;;
12818;SDS011;6474;53.474;9.894;2023-04-01T04:25:19;2.97;;;1.17;;
12818;SDS011;6474;53.474;9.894;2023-04-01T04:27:47;1.30;;;1.30;;
12818;SDS011;6474;53.474;9.894;2023-04-01T04:30:15;1.77;;;1.57;;
12818;SDS011;6474;53.474;9.894;2023-04-01T04:32:43;1.90;;;1.80;;
12818;SDS011;6474;53.474;9.894;2023-04-01T04:35:11;1.53;;;1.53;;
12818;SDS011;6474;53.474;9.894;2023-04-01T04:37:40;1.63;;;1.53;;
12818;SDS011;6474;53.474;9.894;2023-04-01T04:40:08;1.13;;;1.13;;
12818;SDS011;6474;53.474;9.894;2023-04-01T04:42:36;4.70;;;1.33;;
12818;SDS011;6474;53.474;9.894;2023-04-01T04:45:05;1.67;;;1.60;;
12818;SDS011;6474;53.474;9.894;2023-04-01T04:47:33;1.40;;;1.40;;
12818;SDS011;6474;53.474;9.894;2023-04-01T04:50:01;2.63;;;1.23;;
12818;SDS011;6474;53.474;9.894;2023-04-01T04:52:29;1.30;;;1.30;;
12818;SDS011;6474;53.474;9.894;2023-04-01T04:54:58;1.50;;;1.50;;
12818;SDS011;6474;53.474;9.894;2023-04-01T04:57:26;1.83;;;1.73;;
12818;SDS011;6474;53.474;9.894;2023-04-01T04:59:54;1.80;;;1.70;;
12818;SDS011;6474;53.474;9.894;2023-04-01T05:02:22;1.30;;;1.30;;
12818;SDS011;6474;53.474;9.894;2023-04-01T05:04:50;1.60;;;1.50;;
12818;SDS011;6474;53.474;9.894;2023-04-01T05:07:18;1.43;;;1.43;;
12818;SDS011;6474;53.474;9.894;2023-04-01T05:09:46;1.27;;;1.27;;
12818;SDS011;6474;53.474;9.894;2023-04-01T05:12:15;1.90;;;1.20;;
12818;SDS011;6474;53.474;9.894;2023-04-01T05:14:43;1.33;;;1.30;;
12818;SDS011;6474;53.474;9.894;2023-04-01T05:17:11;1.40;;;1.30;;
12818;SDS011;6474;53.474;9.894;2023-04-01T05:19:40;2.13;;;2.00;;
12818;SDS011;6474;53.474;9.894;2023-04-01T05:22:08;1.60;;;1.50;;
12818;SDS011;6474;53.474;9.894;2023-04-01T05:24:36;1.63;;;1.30;;
12818;SDS011;6474;53.474;9.894;2023-04-01T05:27:04;2.17;;;1.20;;
12818;SDS011;6474;53.474;9.894;2023-04-01T05:29:33;1.40;;;1.30;;
12818;SDS011;6474;53.474;9.894;2023-04-01T05:32:01;1.53;;;1.43;;
12818;SDS011;6474;53.474;9.894;2023-04-01T05:34:30;1.33;;;1.33;;
12818;SDS011;6474;53.474;9.894;2023-04-01T05:36:58;1.17;;;1.17;;
12818;SDS011;6474;53.474;9.894;2023-04-01T05:39:26;1.73;;;1.37;;
12818;SDS011;6474;53.474;9.894;2023-04-01T05:41:54;1.23;;;1.23;;
12818;SDS011;6474;53.474;9.894;2023-04-01T05:44:22;1.27;;;1.27;;
12818;SDS011;6474;53.474;9.894;2023-04-01T05:46:52;1.30;;;1.30;;
12818;SDS011;6474;53.474;9.894;2023-04-01T05:49:20;1.70;;;1.43;;
12818;SDS011;6474;53.474;9.894;2023-04-01T05:51:47;1.63;;;1.53;;
12818;SDS011;6474;53.474;9.894;2023-04-01T05:54:15;1.30;;;1.30;;
12818;SDS011;6474;53.474;9.894;2023-04-01T05:56:43;1.20;;;1.20;;
12818;SDS011;6474;53.474;9.894;2023-04-01T05:59:13;1.87;;;1.53;;
12818;SDS011;6474;53.474;9.894;2023-04-01T06:01:41;0.90;;;0.90;;
12818;SDS011;6474;53.474;9.894;2023-04-01T06:04:13;0.90;;;0.90;;
12818;SDS011;6474;53.474;9.894;2023-04-01T06:06:42;0.93;;;0.93;;
12818;SDS011;6474;53.474;9.894;2023-04-01T06:09:13;1.33;;;1.33;;
12818;SDS011;6474;53.474;9.894;2023-04-01T06:11:46;1.27;;;1.27;;
12818;SDS011;6474;53.474;9.894;2023-04-01T06:14:27;1.23;;;1.17;;
12818;SDS011;6474;53.474;9.894;2023-04-01T06:17:05;0.90;;;0.90;;
12818;SDS011;6474;53.474;9.894;2023-04-01T06:19:47;1.50;;;1.50;;
12818;SDS011;6474;53.474;9.894;2023-04-01T06:22:28;1.10;;;1.10;;
12818;SDS011;6474;53.474;9.894;2023-04-01T06:31:36;0.37;;;0.37;;
12818;SDS011;6474;53.474;9.894;2023-04-01T06:37:09;0.20;;;0.20;;
12818;SDS011;6474;53.474;9.894;2023-04-01T06:39:54;0.13;;;0.13;;
12818;SDS011;6474;53.474;9.894;2023-04-01T06:42:39;0.30;;;0.30;;
12818;SDS011;6474;53.474;9.894;2023-04-01T06:45:27;0.17;;;0.17;;
12818;SDS011;6474;53.474;9.894;2023-04-01T06:48:15;0.13;;;0.13;;
12818;SDS011;6474;53.474;9.894;2023-04-01T06:50:53;0.20;;;0.20;;
12818;SDS011;6474;53.474;9.894;2023-04-01T06:53:29;0.33;;;0.33;;
12818;SDS011;6474;53.474;9.894;2023-04-01T06:56:02;0.30;;;0.30;;
12818;SDS011;6474;53.474;9.894;2023-04-01T06:58:34;0.17;;;0.17;;
12818;SDS011;6474;53.474;9.894;2023-04-01T07:01:06;0.27;;;0.27;;
12818;SDS011;6474;53.474;9.894;2023-04-01T07:03:38;0.13;;;0.13;;
12818;SDS011;6474;53.474;9.894;2023-04-01T07:06:12;0.37;;;0.37;;
12818;SDS011;6474;53.474;9.894;2023-04-01T07:08:52;0.10;;;0.10;;
12818;SDS011;6474;53.474;9.894;2023-04-01T07:11:23;0.20;;;0.20;;
12818;SDS011;6474;53.474;9.894;2023-04-01T07:13:54;0.27;;;0.27;;
12818;SDS011;6474;53.474;9.894;2023-04-01T07:16:26;0.20;;;0.20;;
12818;SDS011;6474;53.474;9.894;2023-04-01T07:18:58;0.10;;;0.10;;
12818;SDS011;6474;53.474;9.894;2023-04-01T07:21:30;0.10;;;0.10;;
12818;SDS011;6474;53.474;9.894;2023-04-01T07:24:05;0.10;;;0.10;;
12818;SDS011;6474;53.474;9.894;2023-04-01T07:26:38;0.33;;;0.33;;
12818;SDS011;6474;53.474;9.894;2023-04-01T07:29:09;0.40;;;0.40;;
12818;SDS011;6474;53.474;9.894;2023-04-01T07:31:45;0.30;;;0.30;;
12818;SDS011;6474;53.474;9.894;2023-04-01T07:34:27;0.23;;;0.23;;
12818;SDS011;6474;53.474;9.894;2023-04-01T07:37:00;0.40;;;0.20;;
12818;SDS011;6474;53.474;9.894;2023-04-01T07:39:37;0.20;;;0.20;;
12818;SDS011;6474;53.474;9.894;2023-04-01T07:42:15;0.10;;;0.10;;
12818;SDS011;6474;53.474;9.894;2023-04-01T07:44:53;0.40;;;0.40;;
12818;SDS011;6474;53.474;9.894;2023-04-01T07:47:33;0.80;;;0.17;;
12818;SDS011;6474;53.474;9.894;2023-04-01T07:50:11;0.20;;;0.20;;
12818;SDS011;6474;53.474;9.894;2023-04-01T07:52:47;0.20;;;0.20;;
12818;SDS011;6474;53.474;9.894;2023-04-01T07:55:21;0.17;;;0.17;;
12818;SDS011;6474;53.474;9.894;2023-04-01T07:57:53;0.20;;;0.20;;
12818;SDS011;6474;53.474;9.894;2023-04-01T08:00:27;0.93;;;0.30;;
12818;SDS011;6474;53.474;9.894;2023-04-01T08:03:09;0.23;;;0.23;;
12818;SDS011;6474;53.474;9.894;2023-04-01T08:05:47;0.20;;;0.20;;
12818;SDS011;6474;53.474;9.894;2023-04-01T08:08:25;0.20;;;0.20;;
12818;SDS011;6474;53.474;9.894;2023-04-01T08:11:05;0.40;;;0.40;;
12818;SDS011;6474;53.474;9.894;2023-04-01T08:13:40;0.60;;;0.60;;
12818;SDS011;6474;53.474;9.894;2023-04-01T08:16:14;0.60;;;0.50;;
12818;SDS011;6474;53.474;9.894;2023-04-01T08:18:51;0.20;;;0.20;;
12818;SDS011;6474;53.474;9.894;2023-04-01T08:21:25;0.10;;;0.10;;
12818;SDS011;6474;53.474;9.894;2023-04-01T08:23:56;0.10;;;0.10;;
12818;SDS011;6474;53.474;9.894;2023-04-01T08:26:30;0.20;;;0.20;;
12818;SDS011;6474;53.474;9.894;2023-04-01T08:29:07;0.20;;;0.20;;
12818;SDS011;6474;53.474;9.894;2023-04-01T08:31:40;0.13;;;0.13;;
12818;SDS011;6474;53.474;9.894;2023-04-01T08:34:17;0.17;;;0.17;;
12818;SDS011;6474;53.474;9.894;2023-04-01T08:36:49;0.00;;;0.00;;
12818;SDS011;6474;53.474;9.894;2023-04-01T08:39:22;0.33;;;0.33;;
12818;SDS011;6474;53.474;9.894;2023-04-01T08:42:04;0.20;;;0.20;;
12818;SDS011;6474;53.474;9.894;2023-04-01T08:44:55;0.20;;;0.20;;
12818;SDS011;6474;53.474;9.894;2023-04-01T08:47:38;0.17;;;0.17;;
12818;SDS011;6474;53.474;9.894;2023-04-01T08:53:10;0.30;;;0.30;;
12818;SDS011;6474;53.474;9.894;2023-04-01T08:55:51;0.20;;;0.20;;
12818;SDS011;6474;53.474;9.894;2023-04-01T09:01:31;0.40;;;0.40;;
12818;SDS011;6474;53.474;9.894;2023-04-01T09:04:14;0.10;;;0.10;;
12818;SDS011;6474;53.474;9.894;2023-04-01T09:06:59;0.37;;;0.37;;
12818;SDS011;6474;53.474;9.894;2023-04-01T09:09:48;0.20;;;0.20;;
12818;SDS011;6474;53.474;9.894;2023-04-01T09:12:52;0.30;;;0.30;;
12818;SDS011;6474;53.474;9.894;2023-04-01T09:15:40;0.20;;;0.20;;
12818;SDS011;6474;53.474;9.894;2023-04-01T09:18:28;0.10;;;0.10;;
12818;SDS011;6474;53.474;9.894;2023-04-01T09:24:20;0.10;;;0.10;;
12818;SDS011;6474;53.474;9.894;2023-04-01T09:27:05;0.30;;;0.30;;
12818;SDS011;6474;53.474;9.894;2023-04-01T09:29:42;0.30;;;0.30;;
12818;SDS011;6474;53.474;9.894;2023-04-01T09:35:38;0.23;;;0.13;;
12818;SDS011;6474;53.474;9.894;2023-04-01T09:38:17;0.27;;;0.27;;
12818;SDS011;6474;53.474;9.894;2023-04-01T09:40:54;0.30;;;0.30;;
12818;SDS011;6474;53.474;9.894;2023-04-01T09:43:26;0.40;;;0.40;;
12818;SDS011;6474;53.474;9.894;2023-04-01T09:46:10;0.20;;;0.20;;
12818;SDS011;6474;53.474;9.894;2023-04-01T09:48:50;0.23;;;0.23;;
12818;SDS011;6474;53.474;9.894;2023-04-01T09:51:37;0.57;;;0.40;;
12818;SDS011;6474;53.474;9.894;2023-04-01T09:54:15;0.77;;;0.67;;
12818;SDS011;6474;53.474;9.894;2023-04-01T09:57:05;0.50;;;0.50;;
12818;SDS011;6474;53.474;9.894;2023-04-01T09:59:58;0.20;;;0.20;;
12818;SDS011;6474;53.474;9.894;2023-04-01T10:03:01;0.10;;;0.10;;
12818;SDS011;6474;53.474;9.894;2023-04-01T10:06:20;0.23;;;0.23;;
12818;SDS011;6474;53.474;9.894;2023-04-01T10:09:39;0.30;;;0.30;;
12818;SDS011;6474;53.474;9.894;2023-04-01T10:12:31;1.70;;;0.77;;
12818;SDS011;6474;53.474;9.894;2023-04-01T10:21:45;0.13;;;0.13;;
12818;SDS011;6474;53.474;9.894;2023-04-01T10:27:49;0.17;;;0.17;;
12818;SDS011;6474;53.474;9.894;2023-04-01T10:30:38;0.20;;;0.20;;
12818;SDS011;6474;53.474;9.894;2023-04-01T10:33:38;0.23;;;0.23;;
12818;SDS011;6474;53.474;9.894;2023-04-01T10:36:32;0.20;;;0.20;;
12818;SDS011;6474;53.474;9.894;2023-04-01T10:42:19;0.27;;;0.27;;
12818;SDS011;6474;53.474;9.894;2023-04-01T10:48:34;0.20;;;0.20;;
12818;SDS011;6474;53.474;9.894;2023-04-01T10:51:25;0.27;;;0.27;;
12818;SDS011;6474;53.474;9.894;2023-04-01T10:54:20;0.10;;;0.10;;
12818;SDS011;6474;53.474;9.894;2023-04-01T10:57:06;0.40;;;0.40;;
12818;SDS011;6474;53.474;9.894;2023-04-01T11:00:03;0.20;;;0.20;;
12818;SDS011;6474;53.474;9.894;2023-04-01T11:05:57;0.20;;;0.20;;
12818;SDS011;6474;53.474;9.894;2023-04-01T11:12:28;0.10;;;0.10;;
12818;SDS011;6474;53.474;9.894;2023-04-01T11:18:51;0.30;;;0.30;;
12818;SDS011;6474;53.474;9.894;2023-04-01T11:25:07;0.20;;;0.20;;
12818;SDS011;6474;53.474;9.894;2023-04-01T11:27:55;0.27;;;0.27;;
12818;SDS011;6474;53.474;9.894;2023-04-01T11:30:53;0.10;;;0.10;;
12818;SDS011;6474;53.474;9.894;2023-04-01T11:33:33;0.10;;;0.10;;
12818;SDS011;6474;53.474;9.894;2023-04-01T11:36:07;0.20;;;0.20;;
12818;SDS011;6474;53.474;9.894;2023-04-01T11:38:55;0.27;;;0.27;;
12818;SDS011;6474;53.474;9.894;2023-04-01T11:41:32;0.20;;;0.20;;
12818;SDS011;6474;53.474;9.894;2023-04-01T11:44:14;0.20;;;0.20;;
12818;SDS011;6474;53.474;9.894;2023-04-01T11:47:03;0.30;;;0.30;;
12818;SDS011;6474;53.474;9.894;2023-04-01T11:49:49;0.10;;;0.10;;
12818;SDS011;6474;53.474;9.894;2023-04-01T11:52:30;0.00;;;0.00;;
12818;SDS011;6474;53.474;9.894;2023-04-01T11:55:23;0.27;;;0.27;;
12818;SDS011;6474;53.474;9.894;2023-04-01T11:58:06;0.70;;;0.30;;
12818;SDS011;6474;53.474;9.894;2023-04-01T12:00:58;0.23;;;0.23;;
12818;SDS011;6474;53.474;9.894;2023-04-01T12:03:41;0.30;;;0.30;;
12818;SDS011;6474;53.474;9.894;2023-04-01T12:06:21;0.30;;;0.30;;
12818;SDS011;6474;53.474;9.894;2023-04-01T12:08:59;0.30;;;0.30;;
12818;SDS011;6474;53.474;9.894;2023-04-01T12:11:33;0.40;;;0.40;;
12818;SDS011;6474;53.474;9.894;2023-04-01T12:14:08;0.30;;;0.10;;
12818;SDS011;6474;53.474;9.894;2023-04-01T12:16:45;0.17;;;0.17;;
12818;SDS011;6474;53.474;9.894;2023-04-01T12:19:23;0.17;;;0.17;;
12818;SDS011;6474;53.474;9.894;2023-04-01T12:25:00;0.63;;;0.63;;
12818;SDS011;6474;53.474;9.894;2023-04-01T12:27:41;0.60;;;0.60;;
12818;SDS011;6474;53.474;9.894;2023-04-01T12:30:30;0.53;;;0.53;;
12818;SDS011;6474;53.474;9.894;2023-04-01T12:36:14;0.43;;;0.40;;
12818;SDS011;6474;53.474;9.894;2023-04-01T12:39:02;0.30;;;0.30;;
12818;SDS011;6474;53.474;9.894;2023-04-01T12:41:52;0.50;;;0.50;;
12818;SDS011;6474;53.474;9.894;2023-04-01T12:44:38;0.30;;;0.30;;
12818;SDS011;6474;53.474;9.894;2023-04-01T12:47:23;0.50;;;0.50;;
12818;SDS011;6474;53.474;9.894;2023-04-01T12:50:09;0.83;;;0.83;;
12818;SDS011;6474;53.474;9.894;2023-04-01T12:52:52;0.70;;;0.70;;
12818;SDS011;6474;53.474;9.894;2023-04-01T12:55:41;0.60;;;0.60;;
12818;SDS011;6474;53.474;9.894;2023-04-01T12:58:15;0.40;;;0.40;;
12818;SDS011;6474;53.474;9.894;2023-04-01T13:04:12;0.57;;;0.57;;
12818;SDS011;6474;53.474;9.894;2023-04-01T13:07:04;0.67;;;0.67;;
12818;SDS011;6474;53.474;9.894;2023-04-01T13:09:49;0.30;;;0.30;;
12818;SDS011;6474;53.474;9.894;2023-04-01T13:15:33;0.40;;;0.40;;
12818;SDS011;6474;53.474;9.894;2023-04-01T13:18:07;0.50;;;0.50;;
12818;SDS011;6474;53.474;9.894;2023-04-01T13:20:47;0.60;;;0.60;;
12818;SDS011;6474;53.474;9.894;2023-04-01T13:23:23;0.63;;;0.63;;
12818;SDS011;6474;53.474;9.894;2023-04-01T13:26:03;0.50;;;0.50;;
12818;SDS011;6474;53.474;9.894;2023-04-01T13:28:40;0.60;;;0.60;;
12818;SDS011;6474;53.474;9.894;2023-04-01T13:31:19;1.50;;;0.50;;
12818;SDS011;6474;53.474;9.894;2023-04-01T13:34:13;0.50;;;0.50;;
12818;SDS011;6474;53.474;9.894;2023-04-01T13:36:54;0.30;;;0.30;;
12818;SDS011;6474;53.474;9.894;2023-04-01T13:39:35;0.20;;;0.20;;
12818;SDS011;6474;53.474;9.894;2023-04-01T13:42:16;0.90;;;0.90;;
12818;SDS011;6474;53.474;9.894;2023-04-01T13:44:51;0.20;;;0.20;;
12818;SDS011;6474;53.474;9.894;2023-04-01T13:47:27;0.10;;;0.10;;
12818;SDS011;6474;53.474;9.894;2023-04-01T13:50:12;0.23;;;0.23;;
12818;SDS011;6474;53.474;9.894;2023-04-01T13:53:06;0.40;;;0.40;;
12818;SDS011;6474;53.474;9.894;2023-04-01T13:55:55;0.73;;;0.40;;
12818;SDS011;6474;53.474;9.894;2023-04-01T13:58:42;2.43;;;0.73;;
12818;SDS011;6474;53.474;9.894;2023-04-01T14:01:23;0.47;;;0.47;;
12818;SDS011;6474;53.474;9.894;2023-04-01T14:06:58;0.43;;;0.43;;
12818;SDS011;6474;53.474;9.894;2023-04-01T14:09:40;0.37;;;0.37;;
12818;SDS011;6474;53.474;9.894;2023-04-01T14:12:26;0.20;;;0.20;;
12818;SDS011;6474;53.474;9.894;2023-04-01T14:15:09;0.30;;;0.30;;
12818;SDS011;6474;53.474;9.894;2023-04-01T14:17:50;0.10;;;0.10;;
12818;SDS011;6474;53.474;9.894;2023-04-01T14:20:31;0.60;;;0.60;;
12818;SDS011;6474;53.474;9.894;2023-04-01T14:26:02;0.60;;;0.60;;
12818;SDS011;6474;53.474;9.894;2023-04-01T14:28:40;0.50;;;0.50;;
12818;SDS011;6474;53.474;9.894;2023-04-01T14:34:18;3.00;;;0.97;;
12818;SDS011;6474;53.474;9.894;2023-04-01T14:36:59;2.00;;;0.60;;
12818;SDS011;6474;53.474;9.894;2023-04-01T14:40:03;1.40;;;0.80;;
12818;SDS011;6474;53.474;9.894;2023-04-01T14:42:48;0.70;;;0.70;;
12818;SDS011;6474;53.474;9.894;2023-04-01T14:45:30;4.70;;;0.83;;
12818;SDS011;6474;53.474;9.894;2023-04-01T14:48:21;0.70;;;0.47;;
12818;SDS011;6474;53.474;9.894;2023-04-01T14:50:57;0.97;;;0.97;;
12818;SDS011;6474;53.474;9.894;2023-04-01T14:53:33;1.07;;;1.07;;
12818;SDS011;6474;53.474;9.894;2023-04-01T14:56:05;1.13;;;1.10;;
12818;SDS011;6474;53.474;9.894;2023-04-01T14:58:41;0.37;;;0.37;;
12818;SDS011;6474;53.474;9.894;2023-04-01T15:01:13;1.00;;;0.73;;
12818;SDS011;6474;53.474;9.894;2023-04-01T15:03:54;0.77;;;0.77;;
12818;SDS011;6474;53.474;9.894;2023-04-01T15:06:37;1.07;;;1.07;;
12818;SDS011;6474;53.474;9.894;2023-04-01T15:09:16;0.90;;;0.90;;
12818;SDS011;6474;53.474;9.894;2023-04-01T15:11:53;0.93;;;0.93;;
12818;SDS011;6474;53.474;9.894;2023-04-01T15:17:37;2.50;;;0.70;;
12818;SDS011;6474;53.474;9.894;2023-04-01T15:20:29;2.20;;;1.00;;
12818;SDS011;6474;53.474;9.894;2023-04-01T15:23:12;0.10;;;0.10;;
12818;SDS011;6474;53.474;9.894;2023-04-01T15:25:55;0.73;;;0.73;;
12818;SDS011;6474;53.474;9.894;2023-04-01T15:28:55;0.80;;;0.80;;
12818;SDS011;6474;53.474;9.894;2023-04-01T15:31:43;1.03;;;1.00;;
12818;SDS011;6474;53.474;9.894;2023-04-01T15:34:19;0.60;;;0.60;;
12818;SDS011;6474;53.474;9.894;2023-04-01T15:36:53;0.70;;;0.70;;
12818;SDS011;6474;53.474;9.894;2023-04-01T15:39:29;0.83;;;0.83;;
12818;SDS011;6474;53.474;9.894;2023-04-01T15:42:15;0.80;;;0.80;;
12818;SDS011;6474;53.474;9.894;2023-04-01T15:44:53;0.90;;;0.90;;
12818;SDS011;6474;53.474;9.894;2023-04-01T15:47:35;0.93;;;0.93;;
12818;SDS011;6474;53.474;9.894;2023-04-01T15:53:08;0.70;;;0.70;;
12818;SDS011;6474;53.474;9.894;2023-04-01T15:55:45;1.00;;;1.00;;
12818;SDS011;6474;53.474;9.894;2023-04-01T15:58:25;0.80;;;0.80;;
12818;SDS011;6474;53.474;9.894;2023-04-01T16:01:12;0.57;;;0.57;;
12818;SDS011;6474;53.474;9.894;2023-04-01T16:03:51;0.80;;;0.80;;
12818;SDS011;6474;53.474;9.894;2023-04-01T16:06:29;0.70;;;0.70;;
12818;SDS011;6474;53.474;9.894;2023-04-01T16:09:18;0.67;;;0.67;;
12818;SDS011;6474;53.474;9.894;2023-04-01T16:11:56;0.40;;;0.40;;
12818;SDS011;6474;53.474;9.894;2023-04-01T16:14:33;1.20;;;0.77;;
12818;SDS011;6474;53.474;9.894;2023-04-01T16:17:12;1.07;;;0.97;;
12818;SDS011;6474;53.474;9.894;2023-04-01T16:19:59;0.90;;;0.90;;
12818;SDS011;6474;53.474;9.894;2023-04-01T16:22:37;1.47;;;0.90;;
12818;SDS011;6474;53.474;9.894;2023-04-01T16:25:14;0.90;;;0.53;;
12818;SDS011;6474;53.474;9.894;2023-04-01T16:27:49;0.90;;;0.90;;
12818;SDS011;6474;53.474;9.894;2023-04-01T16:30:32;0.70;;;0.70;;
12818;SDS011;6474;53.474;9.894;2023-04-01T16:33:03;1.40;;;1.30;;
12818;SDS011;6474;53.474;9.894;2023-04-01T16:35:41;0.50;;;0.50;;
12818;SDS011;6474;53.474;9.894;2023-04-01T16:38:15;0.53;;;0.53;;
12818;SDS011;6474;53.474;9.894;2023-04-01T16:40:52;0.70;;;0.70;;
12818;SDS011;6474;53.474;9.894;2023-04-01T16:43:35;5.83;;;0.80;;
12818;SDS011;6474;53.474;9.894;2023-04-01T16:49:25;0.90;;;0.90;;
12818;SDS011;6474;53.474;9.894;2023-04-01T16:52:03;0.40;;;0.40;;
12818;SDS011;6474;53.474;9.894;2023-04-01T16:54:43;1.20;;;1.20;;
12818;SDS011;6474;53.474;9.894;2023-04-01T16:57:19;0.87;;;0.87;;
12818;SDS011;6474;53.474;9.894;2023-04-01T16:59:54;0.63;;;0.63;;
12818;SDS011;6474;53.474;9.894;2023-04-01T17:02:30;0.90;;;0.90;;
12818;SDS011;6474;53.474;9.894;2023-04-01T17:05:03;2.93;;;1.07;;
12818;SDS011;6474;53.474;9.894;2023-04-01T17:07:38;0.80;;;0.80;;
12818;SDS011;6474;53.474;9.894;2023-04-01T17:10:18;0.90;;;0.90;;
12818;SDS011;6474;53.474;9.894;2023-04-01T17:13:03;1.00;;;1.00;;
12818;SDS011;6474;53.474;9.894;2023-04-01T17:15:44;0.53;;;0.53;;
12818;SDS011;6474;53.474;9.894;2023-04-01T17:18:23;1.00;;;1.00;;
12818;SDS011;6474;53.474;9.894;2023-04-01T17:21:01;1.30;;;1.20;;
12818;SDS011;6474;53.474;9.894;2023-04-01T17:23:36;1.53;;;1.47;;